Time;durP1;ratioP1;P1;durP2;ratioP2;P2;SDS_P1;SDS_P2;PMS_P1;PMS_P2;Temp;Humidity;BMP_temperature;BMP_pressure;BME280_temperature;BME280_humidity;BME280_pressure;Samples;Min_cycle;Max_cycle;Signal;HPM_P1;HPM_P2
2024/04/12 00:01:42;;;;;;;6.57;2.25;;;;;;;;;;5284526;27;20080;-79
2024/04/12 00:04:09;;;;;;;6.10;1.75;;;;;;;;;;5313018;26;20016;-81
2024/04/12 00:06:37;;;;;;;4.88;2.22;;;;;;;;;;5256087;27;20002;-79
2024/04/12 00:09:18;;;;;;;5.72;1.80;;;;;;;;;;5285159;26;20029;-80
2024/04/12 00:11:48;;;;;;;6.97;2.20;;;;;;;;;;5311957;26;20446;-80
2024/04/12 00:14:14;;;;;;;5.63;2.20;;;;;;;;;;5282965;27;20006;-79
2024/04/12 00:16:43;;;;;;;7.88;2.17;;;;;;;;;;5288370;26;20474;-79
2024/04/12 00:19:12;;;;;;;6.05;2.25;;;;;;;;;;5345966;26;20349;-81
2024/04/12 00:21:41;;;;;;;5.80;2.65;;;;;;;;;;5346893;26;20001;-79
2024/04/12 00:24:10;;;;;;;6.97;2.45;;;;;;;;;;5346666;26;20005;-81
2024/04/12 00:26:37;;;;;;;6.97;2.15;;;;;;;;;;5315904;26;20000;-80
2024/04/12 00:29:07;;;;;;;6.13;2.00;;;;;;;;;;5346703;26;20004;-81
2024/04/12 00:31:42;;;;;;;6.00;2.00;;;;;;;;;;5346669;26;19997;-80
2024/04/12 00:34:07;;;;;;;8.13;2.40;;;;;;;;;;5345960;26;20009;-80
2024/04/12 00:36:34;;;;;;;8.85;2.33;;;;;;;;;;5316975;26;19997;-79
2024/04/12 00:39:02;;;;;;;5.88;1.98;;;;;;;;;;5317226;26;20000;-81
2024/04/12 00:41:29;;;;;;;7.57;1.77;;;;;;;;;;5311546;26;20017;-80
2024/04/12 00:43:55;;;;;;;7.05;1.98;;;;;;;;;;5283974;26;20472;-80
2024/04/12 00:46:24;;;;;;;7.80;2.20;;;;;;;;;;5284593;26;19994;-81
2024/04/12 00:48:53;;;;;;;9.55;2.33;;;;;;;;;;5290321;27;20400;-80
2024/04/12 00:51:27;;;;;;;8.02;1.58;;;;;;;;;;5291715;27;19998;-79
2024/04/12 00:53:56;;;;;;;5.75;1.85;;;;;;;;;;5263800;26;20025;-79
2024/04/12 00:56:23;;;;;;;7.68;1.90;;;;;;;;;;5291117;27;20547;-81
2024/04/12 00:58:48;;;;;;;8.07;2.20;;;;;;;;;;5343192;26;20368;-82
2024/04/12 01:01:17;;;;;;;7.53;2.08;;;;;;;;;;5321421;26;19997;-80
2024/04/12 01:03:46;;;;;;;;;;;;;;;;;;5329644;26;20056;-80
2024/04/12 01:06:15;;;;;;;7.55;2.47;;;;;;;;;;5327636;27;19933;-80
2024/04/12 01:08:43;;;;;;;8.05;2.13;;;;;;;;;;5324679;27;20019;-80
2024/04/12 01:11:11;;;;;;;3.97;1.70;;;;;;;;;;5320899;27;20539;-80
2024/04/12 01:13:37;;;;;;;4.47;1.83;;;;;;;;;;5335967;26;20070;-82
2024/04/12 01:16:06;;;;;;;10.90;2.90;;;;;;;;;;5321664;26;20004;-81
2024/04/12 01:18:35;;;;;;;6.68;2.10;;;;;;;;;;5322521;26;20001;-80
2024/04/12 01:21:09;;;;;;;;;;;;;;;;;;5295412;26;20020;-79
2024/04/12 01:23:43;;;;;;;9.23;2.17;;;;;;;;;;5351853;26;19943;-81
2024/04/12 01:26:09;;;;;;;6.63;1.95;;;;;;;;;;5292595;26;20005;-79
2024/04/12 01:28:38;;;;;;;7.07;1.98;;;;;;;;;;5315132;26;20461;-81
2024/04/12 01:31:05;;;;;;;8.43;2.25;;;;;;;;;;5345382;26;20090;-80
2024/04/12 01:33:33;;;;;;;6.22;2.03;;;;;;;;;;5318440;27;20012;-80
2024/04/12 01:36:04;;;;;;;5.72;2.80;;;;;;;;;;5348270;26;20010;-80
2024/04/12 01:38:31;;;;;;;8.40;2.05;;;;;;;;;;5319963;26;20026;-79
2024/04/12 01:41:01;;;;;;;20.77;3.20;;;;;;;;;;5314625;26;20006;-79
2024/04/12 01:43:35;;;;;;;6.05;2.03;;;;;;;;;;5343025;26;20005;-81
2024/04/12 01:46:04;;;;;;;16.52;2.72;;;;;;;;;;5313510;26;20009;-80
2024/04/12 01:48:33;;;;;;;11.30;2.17;;;;;;;;;;5314099;26;20016;-80
2024/04/12 01:51:05;;;;;;;6.40;2.00;;;;;;;;;;5342518;26;20016;-79
2024/04/12 01:53:37;;;;;;;9.15;2.20;;;;;;;;;;5285343;27;19997;-80
2024/04/12 01:56:09;;;;;;;5.72;2.72;;;;;;;;;;5341914;26;20001;-80
2024/04/12 01:58:38;;;;;;;7.75;2.50;;;;;;;;;;5342171;26;20034;-79
2024/04/12 02:01:04;;;;;;;7.55;2.42;;;;;;;;;;5327093;26;20005;-78
2024/04/12 02:03:30;;;;;;;12.60;2.65;;;;;;;;;;5347765;26;20004;-81
2024/04/12 02:06:05;;;;;;;11.00;3.58;;;;;;;;;;5348176;26;20009;-80
2024/04/12 02:08:32;;;;;;;16.58;2.90;;;;;;;;;;5319678;26;20548;-79
2024/04/12 02:11:08;;;;;;;11.15;3.10;;;;;;;;;;5319017;26;20465;-80
2024/04/12 02:13:37;;;;;;;8.55;3.28;;;;;;;;;;5348076;26;20070;-80
2024/04/12 02:16:04;;;;;;;10.82;2.90;;;;;;;;;;5318740;26;20020;-78
2024/04/12 02:18:33;;;;;;;11.35;2.88;;;;;;;;;;5318524;26;20020;-80
2024/04/12 02:21:05;;;;;;;10.52;3.30;;;;;;;;;;5319060;26;20344;-79
2024/04/12 02:23:34;;;;;;;9.95;3.03;;;;;;;;;;5290727;26;20392;-80
2024/04/12 02:26:01;;;;;;;5.70;2.58;;;;;;;;;;5289942;26;20013;-80
2024/04/12 02:28:27;;;;;;;7.63;2.78;;;;;;;;;;5311651;26;20079;-79
2024/04/12 02:31:01;;;;;;;9.85;2.80;;;;;;;;;;5284732;27;20010;-79
2024/04/12 02:33:31;;;;;;;10.13;2.72;;;;;;;;;;5314336;26;20020;-79
2024/04/12 02:36:00;;;;;;;10.77;2.70;;;;;;;;;;5284116;27;20013;-78
2024/04/12 02:38:27;;;;;;;8.43;2.70;;;;;;;;;;5312848;27;20042;-78
2024/04/12 02:40:52;;;;;;;8.68;3.03;;;;;;;;;;5312830;26;20412;-80
2024/04/12 02:43:24;;;;;;;7.13;2.50;;;;;;;;;;5340219;26;20475;-79
2024/04/12 02:45:50;;;;;;;18.67;6.65;;;;;;;;;;5312003;26;20009;-80
2024/04/12 02:48:22;;;;;;;13.43;2.92;;;;;;;;;;5314277;26;19998;-79
2024/04/12 02:50:48;;;;;;;8.98;2.58;;;;;;;;;;5341075;26;20049;-78
2024/04/12 02:53:18;;;;;;;8.02;2.40;;;;;;;;;;5341463;26;20002;-80
2024/04/12 02:55:44;;;;;;;8.32;2.65;;;;;;;;;;5284626;26;20535;-81
2024/04/12 02:58:10;;;;;;;9.63;2.67;;;;;;;;;;5283417;26;20017;-79
2024/04/12 03:00:37;;;;;;;7.43;2.70;;;;;;;;;;5284137;27;20012;-80
2024/04/12 03:03:04;;;;;;;8.40;2.70;;;;;;;;;;5284333;26;20076;-79
2024/04/12 03:05:32;;;;;;;8.25;2.85;;;;;;;;;;5312255;26;20334;-78
2024/04/12 03:08:00;;;;;;;7.20;2.67;;;;;;;;;;5283410;27;20010;-80
2024/04/12 03:10:27;;;;;;;13.02;3.00;;;;;;;;;;5257340;27;20348;-79
2024/04/12 03:12:53;;;;;;;9.27;2.75;;;;;;;;;;5312711;26;20002;-78
2024/04/12 03:15:20;;;;;;;15.35;3.58;;;;;;;;;;5329986;26;20345;-81
2024/04/12 03:17:48;;;;;;;9.32;2.90;;;;;;;;;;5341740;26;20412;-80
2024/04/12 03:20:18;;;;;;;10.38;2.58;;;;;;;;;;5341515;26;20033;-79
2024/04/12 03:22:48;;;;;;;7.93;3.70;;;;;;;;;;5341066;26;20001;-80
2024/04/12 03:25:15;;;;;;;10.43;3.50;;;;;;;;;;5341552;26;20006;-79
2024/04/12 03:27:42;;;;;;;10.90;4.10;;;;;;;;;;5312349;26;20010;-80
2024/04/12 03:30:13;;;;;;;6.78;2.90;;;;;;;;;;5307528;26;20069;-82
2024/04/12 03:32:44;;;;;;;7.00;2.45;;;;;;;;;;5317817;26;20029;-79
2024/04/12 03:35:10;;;;;;;8.73;2.55;;;;;;;;;;5289354;26;20325;-80
2024/04/12 03:37:39;;;;;;;10.90;3.25;;;;;;;;;;5318827;26;20038;-80
2024/04/12 03:40:16;;;;;;;6.88;2.55;;;;;;;;;;5288907;26;20452;-78
2024/04/12 03:42:42;;;;;;;9.70;2.72;;;;;;;;;;5348057;26;20407;-79
2024/04/12 03:45:12;;;;;;;12.70;2.88;;;;;;;;;;5349289;26;20027;-80
2024/04/12 03:47:41;;;;;;;9.95;3.78;;;;;;;;;;5292597;26;20016;-78
2024/04/12 03:50:13;;;;;;;10.88;3.22;;;;;;;;;;5322320;26;20021;-78
2024/04/12 03:52:45;;;;;;;8.45;3.00;;;;;;;;;;5351406;26;20001;-81
2024/04/12 03:55:10;;;;;;;7.45;2.60;;;;;;;;;;5351062;26;20011;-80
2024/04/12 03:57:39;;;;;;;7.43;3.00;;;;;;;;;;5329945;26;20476;-79
2024/04/12 04:00:11;;;;;;;10.82;3.42;;;;;;;;;;5316507;26;20511;-80
2024/04/12 04:02:39;;;;;;;14.68;3.05;;;;;;;;;;5313860;26;20017;-80
2024/04/12 04:05:14;;;;;;;8.68;3.30;;;;;;;;;;5256517;27;20002;-82
2024/04/12 04:07:47;;;;;;;9.77;2.80;;;;;;;;;;5312617;26;20013;-78
2024/04/12 04:10:15;;;;;;;20.15;7.10;;;;;;;;;;5340806;26;20139;-79
2024/04/12 04:12:49;;;;;;;7.25;3.03;;;;;;;;;;5313419;26;20013;-80
2024/04/12 04:15:15;;;;;;;11.00;2.60;;;;;;;;;;5316426;26;20015;-79
2024/04/12 04:17:47;;;;;;;10.50;2.70;;;;;;;;;;5288669;26;20001;-81
2024/04/12 04:20:14;;;;;;;15.82;4.40;;;;;;;;;;5347007;26;20005;-81
2024/04/12 04:22:40;;;;;;;12.13;2.95;;;;;;;;;;5317415;26;19997;-80
2024/04/12 04:25:09;;;;;;;7.47;3.10;;;;;;;;;;5346606;26;19997;-80
2024/04/12 04:27:35;;;;;;;13.40;3.55;;;;;;;;;;5316974;26;20005;-80
2024/04/12 04:30:03;;;;;;;9.82;2.70;;;;;;;;;;5316877;26;20001;-80
2024/04/12 04:32:28;;;;;;;9.07;3.25;;;;;;;;;;5317173;26;20008;-80
2024/04/12 04:34:55;;;;;;;11.35;3.50;;;;;;;;;;5287948;26;20001;-79
2024/04/12 04:37:21;;;;;;;16.58;3.72;;;;;;;;;;5317371;26;20001;-78
2024/04/12 04:39:48;;;;;;;11.15;4.22;;;;;;;;;;5288809;26;20011;-80
2024/04/12 04:42:13;;;;;;;8.82;3.08;;;;;;;;;;5288822;26;20001;-80
2024/04/12 04:44:41;;;;;;;8.18;2.85;;;;;;;;;;5317300;26;20001;-79
2024/04/12 04:47:07;;;;;;;10.88;3.03;;;;;;;;;;5316491;26;20020;-81
2024/04/12 04:49:33;;;;;;;9.05;3.53;;;;;;;;;;5317273;26;20001;-79
2024/04/12 04:52:01;;;;;;;13.45;3.40;;;;;;;;;;5317605;26;20005;-78
2024/04/12 04:54:28;;;;;;;13.55;2.95;;;;;;;;;;5317182;26;20033;-79
2024/04/12 04:56:53;;;;;;;15.57;3.25;;;;;;;;;;5317843;26;20016;-82
2024/04/12 04:59:28;;;;;;;9.75;3.13;;;;;;;;;;5290197;26;20001;-82
2024/04/12 05:01:54;;;;;;;10.93;3.08;;;;;;;;;;5317548;26;20001;-80
2024/04/12 05:04:21;;;;;;;11.68;2.92;;;;;;;;;;5338818;26;20013;-80
2024/04/12 05:06:47;;;;;;;12.15;3.05;;;;;;;;;;5340424;26;19998;-80
2024/04/12 05:09:14;;;;;;;9.05;3.03;;;;;;;;;;5285655;27;20004;-79
2024/04/12 05:11:40;;;;;;;12.20;3.47;;;;;;;;;;5286209;27;19997;-82
2024/04/12 05:14:13;;;;;;;9.77;3.40;;;;;;;;;;5316744;26;20001;-80
2024/04/12 05:16:42;;;;;;;10.23;3.40;;;;;;;;;;5344000;26;20076;-82
2024/04/12 05:19:08;;;;;;;11.55;3.70;;;;;;;;;;5309726;26;20001;-81
2024/04/12 05:21:36;;;;;;;9.10;3.20;;;;;;;;;;5292086;26;19997;-80
2024/04/12 05:24:02;;;;;;;13.65;3.33;;;;;;;;;;5320978;26;19996;-79
2024/04/12 05:26:29;;;;;;;8.38;3.17;;;;;;;;;;5320723;26;20012;-80
2024/04/12 05:28:56;;;;;;;17.92;3.33;;;;;;;;;;5350446;26;20428;-81
2024/04/12 05:31:29;;;;;;;13.20;2.97;;;;;;;;;;5343689;26;20025;-82
2024/04/12 05:33:55;;;;;;;8.38;2.58;;;;;;;;;;5315461;26;20078;-82
2024/04/12 05:36:21;;;;;;;12.23;2.63;;;;;;;;;;5314781;26;20045;-79
2024/04/12 05:38:47;;;;;;;14.40;2.85;;;;;;;;;;5314171;26;20041;-80
2024/04/12 05:41:15;;;;;;;10.63;2.58;;;;;;;;;;5315017;26;20518;-80
2024/04/12 05:43:41;;;;;;;5.40;2.60;;;;;;;;;;5314550;26;20002;-81
2024/04/12 05:46:07;;;;;;;11.68;3.10;;;;;;;;;;5342581;26;20072;-80
2024/04/12 05:48:36;;;;;;;7.13;2.83;;;;;;;;;;5303489;26;20011;-79
2024/04/12 05:51:02;;;;;;;8.88;3.95;;;;;;;;;;5348525;26;20013;-81
2024/04/12 05:53:31;;;;;;;11.00;2.92;;;;;;;;;;5350005;26;20005;-81
2024/04/12 05:58:43;;;;;;;16.33;3.20;;;;;;;;;;5317101;26;20012;-79
2024/04/12 06:01:09;;;;;;;10.38;3.10;;;;;;;;;;5312937;26;20017;-78
2024/04/12 06:03:42;;;;;;;12.00;3.00;;;;;;;;;;5312814;27;20465;-79
2024/04/12 06:06:08;;;;;;;9.90;2.90;;;;;;;;;;5312423;27;20001;-80
2024/04/12 06:08:35;;;;;;;11.38;3.20;;;;;;;;;;5284866;27;20002;-80
2024/04/12 06:11:01;;;;;;;20.80;3.85;;;;;;;;;;5284846;27;19998;-80
2024/04/12 06:13:29;;;;;;;11.80;3.08;;;;;;;;;;5271678;26;20017;-78
2024/04/12 06:15:55;;;;;;;9.53;2.87;;;;;;;;;;5313273;26;20009;-79
2024/04/12 06:18:21;;;;;;;9.20;3.38;;;;;;;;;;5313023;27;20030;-80
2024/04/12 06:20:48;;;;;;;14.02;3.40;;;;;;;;;;5284173;27;20001;-80
2024/04/12 06:23:14;;;;;;;14.45;3.03;;;;;;;;;;5284253;27;20002;-79
2024/04/12 06:25:44;;;;;;;9.52;3.42;;;;;;;;;;5284162;26;20009;-80
2024/04/12 06:28:13;;;;;;;15.07;5.15;;;;;;;;;;5284488;26;19998;-78
2024/04/12 06:30:39;;;;;;;9.50;3.00;;;;;;;;;;5314965;26;20002;-80
2024/04/12 06:33:08;;;;;;;10.88;3.20;;;;;;;;;;5335920;26;20025;-81
2024/04/12 06:35:34;;;;;;;;;;;;;;;;;;5349527;26;20009;-80
2024/04/12 06:38:00;;;;;;;14.13;2.83;;;;;;;;;;5321002;26;19930;-79
2024/04/12 06:40:28;;;;;;;9.10;2.97;;;;;;;;;;5292159;26;20012;-80
2024/04/12 06:43:05;;;;;;;7.75;2.97;;;;;;;;;;5295931;26;20000;-79
2024/04/12 06:45:41;;;;;;;8.65;3.10;;;;;;;;;;5324971;26;20005;-80
2024/04/12 06:48:16;;;;;;;9.70;3.05;;;;;;;;;;5325990;26;20013;-80
2024/04/12 06:50:55;;;;;;;10.30;3.22;;;;;;;;;;5318025;26;20016;-81
2024/04/12 06:53:21;;;;;;;6.63;3.00;;;;;;;;;;5295101;26;19998;-80
2024/04/12 06:55:57;;;;;;;11.57;3.30;;;;;;;;;;5316550;26;20449;-79
2024/04/12 06:58:24;;;;;;;9.93;3.28;;;;;;;;;;5313353;26;20341;-80
2024/04/12 07:00:54;;;;;;;22.55;3.22;;;;;;;;;;5312189;27;20017;-80
2024/04/12 07:03:22;;;;;;;8.35;3.15;;;;;;;;;;5315332;26;20010;-81
2024/04/12 07:05:54;;;;;;;11.90;3.03;;;;;;;;;;5255632;26;20021;-80
2024/04/12 07:08:21;;;;;;;14.18;3.05;;;;;;;;;;5317972;26;20001;-81
2024/04/12 07:10:50;;;;;;;9.75;2.92;;;;;;;;;;5318285;26;20005;-81
2024/04/12 07:13:17;;;;;;;8.00;2.80;;;;;;;;;;5317825;26;20052;-79
2024/04/12 07:15:45;;;;;;;7.97;2.85;;;;;;;;;;5289873;26;20082;-81
2024/04/12 07:18:12;;;;;;;11.68;3.58;;;;;;;;;;5318759;26;20001;-81
2024/04/12 07:20:44;;;;;;;11.27;3.78;;;;;;;;;;5347285;26;20016;-80
2024/04/12 07:23:16;;;;;;;9.80;3.63;;;;;;;;;;5290334;26;20045;-80
2024/04/12 07:25:45;;;;;;;9.25;3.38;;;;;;;;;;5315821;26;20013;-80
2024/04/12 07:28:18;;;;;;;6.68;2.92;;;;;;;;;;5324475;26;20012;-80
2024/04/12 07:30:44;;;;;;;11.52;2.88;;;;;;;;;;5324913;26;19997;-79
2024/04/12 07:33:13;;;;;;;12.68;2.67;;;;;;;;;;5315004;27;20006;-80
2024/04/12 07:35:48;;;;;;;9.50;3.03;;;;;;;;;;5316268;26;20362;-80
2024/04/12 07:38:14;;;;;;;9.27;3.03;;;;;;;;;;5284299;27;20014;-80
2024/04/12 07:40:42;;;;;;;10.55;2.95;;;;;;;;;;5284283;27;20461;-80
2024/04/12 07:43:09;;;;;;;12.20;3.03;;;;;;;;;;5311586;26;20009;-79
2024/04/12 07:45:37;;;;;;;10.70;3.03;;;;;;;;;;5277157;26;20001;-82
2024/04/12 07:50:53;;;;;;;10.20;2.85;;;;;;;;;;5317025;26;20019;-80
2024/04/12 07:53:23;;;;;;;5.13;2.70;;;;;;;;;;5275595;26;20001;-80
2024/04/12 07:56:08;;;;;;;;;;;;;;;;;;;;;
2024/04/12 07:58:26;;;;;;;7.80;2.80;;;;;;;;;;5349364;26;20033;-82
2024/04/12 08:01:16;;;;;;;8.43;2.60;;;;;;;;;;5289501;26;20001;-81
2024/04/12 08:03:40;;;;;;;11.60;2.90;;;;;;;;;;5344994;26;20083;-80
2024/04/12 08:06:18;;;;;;;13.65;3.97;;;;;;;;;;5342556;26;20000;-80
2024/04/12 08:08:44;;;;;;;14.48;2.95;;;;;;;;;;5318199;26;20047;-80
2024/04/12 08:11:33;;;;;;;14.27;2.75;;;;;;;;;;5285858;26;20014;-80
2024/04/12 08:14:05;;;;;;;6.85;2.65;;;;;;;;;;5313023;26;19998;-80
2024/04/12 08:16:38;;;;;;;6.97;2.70;;;;;;;;;;5321224;26;20056;-81
2024/04/12 08:19:13;;;;;;;11.35;2.67;;;;;;;;;;5351478;26;20016;-81
2024/04/12 08:21:43;;;;;;;13.27;2.72;;;;;;;;;;5302227;26;20456;-82
2024/04/12 08:24:11;;;;;;;11.35;2.95;;;;;;;;;;5277446;26;20005;-80
2024/04/12 08:26:37;;;;;;;6.32;2.70;;;;;;;;;;5289373;26;20004;-81
2024/04/12 08:29:16;;;;;;;8.25;3.08;;;;;;;;;;5314226;26;20001;-79
2024/04/12 08:31:47;;;;;;;13.27;3.47;;;;;;;;;;5310491;26;20357;-81
2024/04/12 08:34:14;;;;;;;5.80;2.70;;;;;;;;;;5293206;26;20002;-81
2024/04/12 08:36:40;;;;;;;11.75;3.10;;;;;;;;;;5353246;26;20040;-80
2024/04/12 08:39:25;;;;;;;8.60;2.70;;;;;;;;;;5280046;26;20005;-80
2024/04/12 08:41:59;;;;;;;14.02;3.17;;;;;;;;;;5316875;26;20020;-81
2024/04/12 08:44:31;;;;;;;5.75;2.50;;;;;;;;;;5286683;26;20472;-81
2024/04/12 08:47:51;;;;;;;9.93;2.65;;;;;;;;;;5346464;26;20020;-81
2024/04/12 08:49:57;;;;;;;7.63;3.03;;;;;;;;;;5345486;26;20463;-81
2024/04/12 08:52:28;;;;;;;10.65;3.35;;;;;;;;;;5317489;26;19997;-80
2024/04/12 08:54:55;;;;;;;14.40;3.65;;;;;;;;;;5289304;26;20008;-81
2024/04/12 08:57:26;;;;;;;8.60;3.20;;;;;;;;;;5315704;26;20013;-81
2024/04/12 08:59:52;;;;;;;12.90;3.58;;;;;;;;;;5316996;26;20001;-82
2024/04/12 09:02:22;;;;;;;7.47;3.38;;;;;;;;;;5317764;26;20040;-81
2024/04/12 09:04:48;;;;;;;10.82;3.38;;;;;;;;;;5312604;26;20020;-79
2024/04/12 09:07:14;;;;;;;9.40;3.80;;;;;;;;;;5333699;26;20354;-81
2024/04/12 09:09:52;;;;;;;10.52;3.20;;;;;;;;;;5313343;26;20012;-80
2024/04/12 09:12:22;;;;;;;13.15;3.45;;;;;;;;;;5289212;26;20013;-82
2024/04/12 09:14:48;;;;;;;9.63;3.30;;;;;;;;;;5344386;26;20016;-82
2024/04/12 09:17:16;;;;;;;12.38;3.85;;;;;;;;;;5338869;26;20013;-82
2024/04/12 09:19:41;;;;;;;10.65;3.70;;;;;;;;;;5318844;26;20167;-81
2024/04/12 09:22:12;;;;;;;11.20;3.80;;;;;;;;;;5356160;26;20048;-82
2024/04/12 09:24:41;;;;;;;11.70;3.72;;;;;;;;;;5310097;26;20009;-80
2024/04/12 09:27:09;;;;;;;;;;;;;;;;;;5330257;26;20001;-81
2024/04/12 09:29:43;;;;;;;9.65;3.75;;;;;;;;;;5344869;26;19985;-80
2024/04/12 09:34:58;;;;;;;9.77;3.70;;;;;;;;;;5320916;26;20083;-80
2024/04/12 09:37:30;;;;;;;6.72;3.28;;;;;;;;;;5340256;26;20012;-83
2024/04/12 09:45:22;;;;;;;10.68;2.67;;;;;;;;;;5321035;26;20076;-80
2024/04/12 10:37:51;;;;;;;10.07;1.92;;;;;;;;;;5372730;26;20005;-80
2024/04/12 10:40:17;;;;;;;4.97;1.50;;;;;;;;;;5330871;26;20001;-80
2024/04/12 10:42:45;;;;;;;7.43;1.70;;;;;;;;;;5294304;26;20010;-79
2024/04/12 10:45:15;;;;;;;6.20;1.55;;;;;;;;;;5332387;26;20005;-81
2024/04/12 10:47:44;;;;;;;5.05;1.40;;;;;;;;;;5287696;26;20005;-82
2024/04/12 10:50:10;;;;;;;6.68;1.25;;;;;;;;;;5318684;26;20009;-82
2024/04/12 10:52:38;;;;;;;6.60;1.30;;;;;;;;;;5346490;26;20029;-80
2024/04/12 10:55:11;;;;;;;8.17;1.50;;;;;;;;;;5318295;26;20005;-80
2024/04/12 10:57:40;;;;;;;6.50;1.38;;;;;;;;;;5315423;26;20226;-83
2024/04/12 11:00:14;;;;;;;4.07;1.20;;;;;;;;;;5313711;26;19996;-82
2024/04/12 11:02:41;;;;;;;6.15;1.83;;;;;;;;;;5319036;26;20011;-82
2024/04/12 11:07:46;;;;;;;8.90;1.88;;;;;;;;;;5349722;26;20016;-81
2024/04/12 11:10:24;;;;;;;6.13;1.15;;;;;;;;;;5349596;26;20001;-81
2024/04/12 11:12:51;;;;;;;5.40;1.23;;;;;;;;;;5318291;26;20070;-82
2024/04/12 11:31:55;;;;;;;5.68;1.35;;;;;;;;;;5315419;27;20358;-83
2024/04/12 11:34:29;;;;;;;8.77;1.70;;;;;;;;;;5315765;26;20025;-81
2024/04/12 11:37:05;;;;;;;8.98;1.67;;;;;;;;;;5343325;26;20121;-81
2024/04/12 11:39:35;;;;;;;10.95;1.65;;;;;;;;;;5315273;27;20465;-82
2024/04/12 11:42:03;;;;;;;5.68;1.70;;;;;;;;;;5324579;26;20033;-82
2024/04/12 11:44:34;;;;;;;5.53;1.50;;;;;;;;;;5349937;26;20001;-82
2024/04/12 11:47:04;;;;;;;6.68;1.30;;;;;;;;;;5321004;26;19997;-82
2024/04/12 11:49:42;;;;;;;6.63;1.38;;;;;;;;;;5348721;26;20013;-82
2024/04/12 11:52:15;;;;;;;4.72;1.42;;;;;;;;;;5345553;26;20022;-81
2024/04/12 11:54:52;;;;;;;5.47;1.50;;;;;;;;;;5303139;26;20019;-82
2024/04/12 11:57:22;;;;;;;6.05;1.42;;;;;;;;;;5387127;26;20020;-83
2024/04/12 11:59:54;;;;;;;6.07;1.45;;;;;;;;;;5396639;26;20000;-81
2024/04/12 12:02:22;;;;;;;7.00;1.60;;;;;;;;;;5338633;26;19997;-82
2024/04/12 12:04:48;;;;;;;6.07;1.65;;;;;;;;;;5339647;26;20011;-81
2024/04/12 12:07:16;;;;;;;7.18;1.40;;;;;;;;;;5338361;26;20055;-82
2024/04/12 12:09:42;;;;;;;7.05;1.50;;;;;;;;;;5330748;26;20006;-82
2024/04/12 12:12:11;;;;;;;7.18;1.40;;;;;;;;;;5306582;26;19996;-82
2024/04/12 12:14:36;;;;;;;;;;;;;;;;;;5359857;26;20012;-82
2024/04/12 12:17:05;;;;;;;5.57;1.17;;;;;;;;;;5324238;26;20395;-83
2024/04/12 12:19:32;;;;;;;5.07;1.33;;;;;;;;;;5334664;26;20040;-83
2024/04/12 12:22:00;;;;;;;6.03;1.23;;;;;;;;;;5358297;26;20041;-82
2024/04/12 12:24:26;;;;;;;6.30;1.25;;;;;;;;;;5344776;26;20008;-81
2024/04/12 12:26:52;;;;;;;5.10;1.17;;;;;;;;;;5328671;26;20000;-82
2024/04/12 12:29:18;;;;;;;10.85;1.85;;;;;;;;;;5397872;26;20031;-82
2024/04/12 12:31:45;;;;;;;8.75;1.30;;;;;;;;;;5363185;26;20084;-82
2024/04/12 12:34:14;;;;;;;4.43;1.08;;;;;;;;;;5325882;26;20017;-82
2024/04/12 12:36:40;;;;;;;3.28;1.20;;;;;;;;;;5316562;26;20147;-82
2024/04/12 12:39:09;;;;;;;4.35;1.10;;;;;;;;;;5328748;26;20004;-83
2024/04/12 12:41:35;;;;;;;5.78;1.40;;;;;;;;;;5297671;26;20020;-81
2024/04/12 12:44:05;;;;;;;6.75;1.15;;;;;;;;;;5353985;26;20005;-82
2024/04/12 12:46:32;;;;;;;3.47;1.00;;;;;;;;;;5341055;26;20374;-81
2024/04/12 12:49:01;;;;;;;5.63;1.85;;;;;;;;;;5339253;26;20038;-84
2024/04/12 12:51:26;;;;;;;3.88;0.93;;;;;;;;;;5316334;26;20016;-82
2024/04/12 12:53:55;;;;;;;3.30;1.02;;;;;;;;;;5336065;26;20006;-83
2024/04/12 12:56:22;;;;;;;2.80;1.20;;;;;;;;;;5291279;26;20005;-81
2024/04/12 12:58:48;;;;;;;4.75;1.00;;;;;;;;;;5319992;26;20456;-81
2024/04/12 13:01:16;;;;;;;5.10;1.30;;;;;;;;;;5320484;26;20009;-82
2024/04/12 13:03:43;;;;;;;3.67;1.02;;;;;;;;;;5292226;26;19997;-80
2024/04/12 13:06:21;;;;;;;6.75;1.02;;;;;;;;;;5292187;26;20407;-82
2024/04/12 13:08:47;;;;;;;6.75;1.20;;;;;;;;;;5350715;26;20012;-79
2024/04/12 13:11:15;;;;;;;5.18;1.25;;;;;;;;;;5293076;26;20005;-81
2024/04/12 13:13:42;;;;;;;6.95;1.20;;;;;;;;;;5353436;26;20024;-82
2024/04/12 13:16:11;;;;;;;4.72;1.00;;;;;;;;;;5297528;26;20005;-81
2024/04/12 13:18:43;;;;;;;4.65;0.98;;;;;;;;;;5326481;26;20016;-81
2024/04/12 13:21:12;;;;;;;5.30;1.20;;;;;;;;;;5287524;27;20005;-81
2024/04/12 13:23:39;;;;;;;2.70;0.77;;;;;;;;;;5317453;26;20076;-82
2024/04/12 13:26:06;;;;;;;4.85;1.27;;;;;;;;;;5286213;27;20394;-81
2024/04/12 13:28:32;;;;;;;11.13;1.17;;;;;;;;;;5314774;27;20013;-82
2024/04/12 13:30:58;;;;;;;3.65;1.00;;;;;;;;;;5318026;26;20107;-80
2024/04/12 13:33:24;;;;;;;7.30;1.50;;;;;;;;;;5290035;27;20099;-81
2024/04/12 13:35:52;;;;;;;5.78;1.30;;;;;;;;;;5318098;26;20005;-82
2024/04/12 13:38:18;;;;;;;5.60;1.40;;;;;;;;;;5318610;27;20338;-82
2024/04/12 13:40:50;;;;;;;8.38;1.65;;;;;;;;;;5318014;27;20001;-81
2024/04/12 13:43:19;;;;;;;5.47;1.38;;;;;;;;;;5318944;26;20476;-81
2024/04/12 13:51:18;;;;;;;5.00;1.20;;;;;;;;;;5297315;27;20441;-83
2024/04/12 13:53:50;;;;;;;7.95;1.20;;;;;;;;;;5323943;26;20008;-81
2024/04/12 13:56:26;;;;;;;7.95;1.50;;;;;;;;;;5293725;26;20473;-82
2024/04/12 13:58:53;;;;;;;8.77;1.15;;;;;;;;;;5295428;26;20002;-82
2024/04/12 14:01:41;;;;;;;5.63;1.20;;;;;;;;;;5328401;27;20481;-81
2024/04/12 14:04:13;;;;;;;5.63;1.17;;;;;;;;;;5347475;26;19997;-82
2024/04/12 14:06:39;;;;;;;4.82;1.40;;;;;;;;;;5316133;27;19997;-82
2024/04/12 14:09:09;;;;;;;5.32;1.30;;;;;;;;;;5290766;27;20045;-82
2024/04/12 14:11:35;;;;;;;5.75;2.03;;;;;;;;;;5314776;26;20296;-82
2024/04/12 14:14:04;;;;;;;4.22;1.10;;;;;;;;;;5286228;26;20013;-82
2024/04/12 14:16:32;;;;;;;16.30;1.77;;;;;;;;;;5316114;26;20105;-83
2024/04/12 14:18:59;;;;;;;5.03;1.52;;;;;;;;;;5320406;26;20461;-82
2024/04/12 14:21:27;;;;;;;10.80;1.48;;;;;;;;;;5356532;26;20008;-82
2024/04/12 14:23:53;;;;;;;8.50;1.27;;;;;;;;;;5296947;26;20085;-82
2024/04/12 14:26:19;;;;;;;4.85;1.15;;;;;;;;;;5295218;26;20012;-81
2024/04/12 14:28:46;;;;;;;5.28;1.30;;;;;;;;;;5352826;26;20016;-81
2024/04/12 14:31:11;;;;;;;5.90;1.20;;;;;;;;;;5321530;26;20001;-81
2024/04/12 14:33:38;;;;;;;3.58;1.15;;;;;;;;;;5290756;26;20036;-81
2024/04/12 14:36:04;;;;;;;6.18;1.25;;;;;;;;;;5348542;26;20009;-81
2024/04/12 14:38:38;;;;;;;4.55;1.40;;;;;;;;;;5293424;26;20001;-80
2024/04/12 14:41:07;;;;;;;4.22;1.10;;;;;;;;;;5290106;26;20452;-80
2024/04/12 14:43:36;;;;;;;6.15;1.35;;;;;;;;;;5320929;26;20360;-81
2024/04/12 14:46:06;;;;;;;4.72;0.90;;;;;;;;;;5290774;26;20004;-81
2024/04/12 14:48:42;;;;;;;5.22;1.15;;;;;;;;;;5319183;26;20071;-80
2024/04/12 14:51:08;;;;;;;6.82;1.08;;;;;;;;;;5348188;26;20011;-81
2024/04/12 14:53:33;;;;;;;7.22;1.33;;;;;;;;;;5348456;26;20001;-81
2024/04/12 14:55:59;;;;;;;3.45;1.00;;;;;;;;;;5317872;26;20012;-81
2024/04/12 14:58:27;;;;;;;5.57;1.10;;;;;;;;;;5319554;26;20030;-79
2024/04/12 15:00:55;;;;;;;5.55;1.35;;;;;;;;;;5319847;26;20029;-80
2024/04/12 15:49:58;;;;;;;6.55;1.33;;;;;;;;;;5320902;26;20000;-81
2024/04/12 15:52:25;;;;;;;5.55;1.35;;;;;;;;;;5291686;26;20011;-81
2024/04/12 15:55:07;;;;;;;6.20;1.30;;;;;;;;;;5319259;26;20440;-81
2024/04/12 16:11:15;;;;;;;10.93;1.38;;;;;;;;;;5350047;26;20008;-81
2024/04/12 16:13:43;;;;;;;8.25;1.23;;;;;;;;;;5349117;26;20017;-81
2024/04/12 16:16:08;;;;;;;4.53;1.17;;;;;;;;;;5349992;26;20005;-80
2024/04/12 16:18:34;;;;;;;4.25;1.60;;;;;;;;;;5352526;26;20074;-79
2024/04/12 16:21:00;;;;;;;6.93;1.83;;;;;;;;;;5351303;26;20057;-82
2024/04/12 16:23:27;;;;;;;5.32;1.70;;;;;;;;;;5319268;26;19997;-81
2024/04/12 16:25:52;;;;;;;4.30;1.25;;;;;;;;;;5319928;26;20071;-79
2024/04/12 16:28:18;;;;;;;9.35;2.17;;;;;;;;;;5352126;26;19998;-80
2024/04/12 16:30:45;;;;;;;6.25;1.40;;;;;;;;;;5323637;26;19996;-81
2024/04/12 16:33:14;;;;;;;8.63;1.40;;;;;;;;;;5321323;26;20016;-81
2024/04/12 16:35:40;;;;;;;5.07;2.00;;;;;;;;;;5284844;26;20393;-83
2024/04/12 16:38:06;;;;;;;3.92;1.25;;;;;;;;;;5341448;26;20020;-83
2024/04/12 16:40:32;;;;;;;6.82;1.33;;;;;;;;;;5316557;26;20009;-82
2024/04/12 16:42:58;;;;;;;7.28;1.55;;;;;;;;;;5345402;26;20012;-81
2024/04/12 16:45:24;;;;;;;9.45;1.85;;;;;;;;;;5325210;26;20009;-82
2024/04/12 16:47:51;;;;;;;6.00;1.50;;;;;;;;;;5326790;26;20012;-83
2024/04/12 16:50:17;;;;;;;5.18;1.25;;;;;;;;;;5324708;26;20001;-81
2024/04/12 16:52:45;;;;;;;8.27;1.67;;;;;;;;;;5290447;26;20024;-82
2024/04/12 16:55:11;;;;;;;5.88;1.63;;;;;;;;;;5288162;26;19998;-83
2024/04/12 16:57:36;;;;;;;5.50;1.95;;;;;;;;;;5316282;27;19998;-82
2024/04/12 17:00:06;;;;;;;8.57;1.85;;;;;;;;;;5288889;27;20004;-81
2024/04/12 17:02:32;;;;;;;7.20;1.70;;;;;;;;;;5293580;27;20048;-83
2024/04/12 17:05:01;;;;;;;6.57;1.67;;;;;;;;;;5293550;27;20017;-81
2024/04/12 17:07:29;;;;;;;7.95;1.75;;;;;;;;;;5291217;27;20333;-81
2024/04/12 17:09:59;;;;;;;8.40;2.10;;;;;;;;;;5348981;26;19997;-80
2024/04/12 17:12:25;;;;;;;6.30;2.20;;;;;;;;;;5296401;26;20349;-82
2024/04/12 17:14:50;;;;;;;10.50;2.50;;;;;;;;;;5355163;26;20005;-83
2024/04/12 17:17:16;;;;;;;5.95;1.83;;;;;;;;;;5352812;26;20005;-82
2024/04/12 17:19:42;;;;;;;9.48;2.17;;;;;;;;;;5352750;26;20017;-81